createdAt,value
2022-11-29T00:11:11.197Z,19.6
2022-11-29T00:26:20.489Z,19.9
2022-11-29T00:41:29.523Z,20.9
2022-11-29T00:56:38.924Z,21.6
2022-11-29T01:11:48.227Z,18.2
2022-11-29T01:26:58.963Z,22.8
2022-11-29T01:42:08.787Z,22
2022-11-29T01:57:18.167Z,20
2022-11-29T02:12:27.866Z,18.8
2022-11-29T02:27:37.620Z,21.1
2022-11-29T02:42:57.148Z,18.4
2022-11-29T02:58:06.659Z,21.4
2022-11-29T03:13:18.967Z,18.3
2022-11-29T03:28:28.373Z,17.2
2022-11-29T03:43:40.626Z,19.6
2022-11-29T03:58:49.974Z,17.9
2022-11-29T04:13:59.688Z,21.5
2022-11-29T04:29:09.272Z,22.3
2022-11-29T04:44:18.626Z,18.3
2022-11-29T04:59:28.094Z,21.9
2022-11-29T05:14:37.883Z,17.9
2022-11-29T05:29:47.323Z,21.1
2022-11-29T05:44:56.866Z,19.1
2022-11-29T06:00:06.464Z,23.4
2022-11-29T06:15:15.931Z,21.4
2022-11-29T06:30:25.285Z,21.6
2022-11-29T06:45:35.175Z,27.7
2022-11-29T07:00:44.603Z,25.9
2022-11-29T07:15:54.471Z,23.2
2022-11-29T07:31:04.246Z,22.2
2022-11-29T07:46:14.910Z,21.6
2022-11-29T08:01:25.895Z,28.6
2022-11-29T08:16:36.089Z,25.9
2022-11-29T08:31:45.747Z,28.2
2022-11-29T08:46:55.415Z,29
2022-11-29T09:02:05.667Z,29.4
2022-11-29T09:17:15.447Z,30.8
2022-11-29T09:32:24.869Z,31
2022-11-29T09:47:34.517Z,31.1
2022-11-29T10:02:43.919Z,34.8
2022-11-29T10:18:02.025Z,33.5
2022-11-29T10:33:11.397Z,32.2
2022-11-29T10:48:21.286Z,36.4
2022-11-29T11:03:30.885Z,29.4
2022-11-29T11:18:40.344Z,34.7
2022-11-29T11:33:49.791Z,36.5
2022-11-29T11:48:58.949Z,43.7
2022-11-29T12:04:11.331Z,38.8
2022-11-29T12:19:23.405Z,38.1
2022-11-29T12:34:33.389Z,42
2022-11-29T12:49:43.023Z,47.1
2022-11-29T13:05:00.489Z,41.3
2022-11-29T13:20:10.834Z,41.1
2022-11-29T13:35:21.942Z,39
2022-11-29T13:50:31.567Z,37.7
2022-11-29T14:05:41.510Z,41.4
2022-11-29T14:20:51.454Z,44
2022-11-29T14:36:01.164Z,51.2
2022-11-29T14:51:11.540Z,49.2
2022-11-29T15:06:21.275Z,52
2022-11-29T15:21:30.810Z,48.1
2022-11-29T15:36:40.237Z,60.1
2022-11-29T15:51:50.280Z,52.4
2022-11-29T16:06:59.628Z,49.3
2022-11-29T16:22:09.525Z,59.8
2022-11-29T16:37:18.943Z,59.7
2022-11-29T16:52:28.424Z,54
2022-11-29T17:07:38.208Z,56.6
2022-11-29T17:22:48.108Z,54
2022-11-29T17:37:57.413Z,53.5
2022-11-29T17:53:07.512Z,61.3
2022-11-29T18:08:16.801Z,74.9
2022-11-29T18:23:25.699Z,81.2
2022-11-29T18:38:34.842Z,84.5
2022-11-29T18:53:44.565Z,87.8
2022-11-29T19:08:54.314Z,80
2022-11-29T19:24:03.670Z,80.8
2022-11-29T19:39:15.267Z,87.5
2022-11-29T19:54:25.592Z,79.2
2022-11-29T20:09:35.119Z,85.6
2022-11-29T20:24:46.073Z,82
2022-11-29T20:39:55.465Z,87.8
2022-11-29T20:55:05.240Z,86.2
2022-11-29T21:10:20.748Z,82.5
2022-11-29T21:25:30.679Z,80.3
2022-11-29T21:40:39.973Z,85.7
2022-11-29T21:55:49.389Z,91.4
2022-11-29T22:10:58.803Z,101.2
2022-11-29T22:26:46.237Z,104.3
2022-11-29T22:41:56.398Z,96.5
2022-11-29T22:57:08.561Z,87.3
2022-11-29T23:12:17.918Z,99.7
2022-11-29T23:27:27.519Z,95.8
2022-11-29T23:42:37.323Z,84.5
2022-11-29T23:57:46.804Z,87
